Time;durP1;ratioP1;P1;durP2;ratioP2;P2;SDS_P1;SDS_P2;PMS_P1;PMS_P2;Temp;Humidity;BMP_temperature;BMP_pressure;BME280_temperature;BME280_humidity;BME280_pressure;Samples;Min_cycle;Max_cycle;Signal;HPM_P1;HPM_P2
2023/05/18 08:04:49;;;;;;;2.42;0.80;;;11.40;99.90;;;;;;5111671;27;20384;-76
2023/05/18 08:07:17;;;;;;;4.13;0.88;;;11.50;99.90;;;;;;5110295;28;20491;-76
2023/05/18 08:09:43;;;;;;;1.20;0.70;;;11.60;99.90;;;;;;5110077;28;20044;-76
2023/05/18 08:12:09;;;;;;;2.40;0.80;;;11.60;99.90;;;;;;5109814;28;20399;-76
2023/05/18 08:14:35;;;;;;;2.85;0.90;;;11.70;99.90;;;;;;5110507;28;20035;-77
2023/05/18 08:17:03;;;;;;;4.90;0.90;;;11.80;99.90;;;;;;5110001;28;20051;-77
2023/05/18 08:19:29;;;;;;;2.08;0.80;;;11.90;99.90;;;;;;5103323;28;20143;-76
2023/05/18 08:21:54;;;;;;;2.42;0.70;;;11.90;99.90;;;;;;5099588;28;20075;-78
2023/05/18 08:24:20;;;;;;;3.88;0.80;;;11.90;99.90;;;;;;5100169;28;20032;-76
2023/05/18 08:26:46;;;;;;;2.75;1.10;;;12.00;99.90;;;;;;5100204;28;20055;-77
2023/05/18 08:29:12;;;;;;;3.85;1.00;;;12.00;99.90;;;;;;5101020;28;20032;-77
2023/05/18 08:31:39;;;;;;;3.55;1.00;;;12.10;99.90;;;;;;5098955;28;20491;-80
2023/05/18 08:34:06;;;;;;;1.83;0.82;;;12.10;99.90;;;;;;5086962;28;20046;-78
2023/05/18 08:36:34;;;;;;;3.83;0.80;;;12.20;99.90;;;;;;5101076;28;20046;-77
2023/05/18 08:39:01;;;;;;;2.30;0.70;;;12.20;99.90;;;;;;5101030;28;20043;-77
2023/05/18 08:41:57;;;;;;;2.33;0.70;;;12.20;99.90;;;;;;5098586;28;20115;-77
2023/05/18 08:44:37;;;;;;;5.18;1.10;;;12.20;99.90;;;;;;5092031;28;20087;-77
2023/05/18 08:47:04;;;;;;;2.15;0.90;;;12.20;99.90;;;;;;5099410;28;20516;-78
2023/05/18 08:49:31;;;;;;;2.17;0.85;;;12.30;99.90;;;;;;5101155;28;20119;-79
2023/05/18 08:52:02;;;;;;;2.90;0.70;;;12.30;99.90;;;;;;5095526;28;20111;-77
2023/05/18 08:54:29;;;;;;;2.72;0.80;;;12.30;99.90;;;;;;5102075;28;20059;-77
2023/05/18 08:56:56;;;;;;;3.08;1.00;;;12.40;99.90;;;;;;5097034;28;20044;-78
2023/05/18 08:59:29;;;;;;;2.22;0.80;;;12.40;99.90;;;;;;5098730;27;20101;-78
2023/05/18 09:01:54;;;;;;;;;;;12.50;99.90;;;;;;5104010;28;20039;-78
2023/05/18 09:04:21;;;;;;;3.72;0.82;;;12.50;99.90;;;;;;5090510;28;19930;-79
2023/05/18 09:06:47;;;;;;;3.08;1.15;;;12.40;99.90;;;;;;5107476;28;20054;-79
2023/05/18 09:09:14;;;;;;;3.08;0.90;;;12.50;99.90;;;;;;5109219;28;20042;-78
2023/05/18 09:11:40;;;;;;;2.95;0.80;;;12.40;99.90;;;;;;5107550;28;20048;-79
2023/05/18 09:14:06;;;;;;;3.63;0.70;;;12.40;99.90;;;;;;5104953;28;20429;-79
2023/05/18 09:16:32;;;;;;;4.15;1.00;;;12.40;99.90;;;;;;5094170;28;20055;-78
2023/05/18 09:18:58;;;;;;;4.22;1.13;;;12.40;99.90;;;;;;5094878;28;20067;-80
2023/05/18 09:21:25;;;;;;;5.63;1.00;;;12.40;99.90;;;;;;5093374;28;20454;-79
2023/05/18 09:23:51;;;;;;;2.25;0.80;;;12.40;99.90;;;;;;5059914;28;20059;-79
2023/05/18 09:26:18;;;;;;;3.70;0.95;;;12.50;99.90;;;;;;5095066;28;20052;-80
2023/05/18 09:28:46;;;;;;;4.97;0.73;;;12.50;99.90;;;;;;5094315;28;20066;-79
2023/05/18 09:31:20;;;;;;;3.53;1.00;;;12.60;99.90;;;;;;5090401;28;20117;-78
2023/05/18 09:33:47;;;;;;;3.83;0.90;;;12.60;99.90;;;;;;5093647;28;20127;-78
2023/05/18 09:36:16;;;;;;;2.30;0.70;;;12.60;99.90;;;;;;5076808;28;20058;-78
2023/05/18 09:38:45;;;;;;;2.50;0.90;;;12.60;99.90;;;;;;5076827;28;20079;-77
2023/05/18 09:41:20;;;;;;;4.43;0.90;;;12.70;99.90;;;;;;5093739;28;20052;-76
2023/05/18 09:43:50;;;;;;;2.15;0.85;;;12.70;99.90;;;;;;5094862;28;20102;-76
2023/05/18 09:46:17;;;;;;;4.45;0.82;;;12.80;99.90;;;;;;5094119;28;20403;-80
2023/05/18 09:48:45;;;;;;;4.40;0.80;;;12.90;99.90;;;;;;5095316;28;20127;-78
2023/05/18 09:51:16;;;;;;;3.05;0.90;;;13.00;99.90;;;;;;5094978;28;20095;-77
2023/05/18 09:53:47;;;;;;;2.58;0.80;;;13.10;99.90;;;;;;5092533;28;20040;-76
2023/05/18 09:56:15;;;;;;;3.65;0.85;;;13.10;99.90;;;;;;5093301;28;20055;-75
2023/05/18 09:58:41;;;;;;;2.45;1.00;;;13.10;99.90;;;;;;5093085;28;20044;-77
2023/05/18 10:01:07;;;;;;;3.28;0.90;;;13.10;99.90;;;;;;5092493;28;20055;-77
2023/05/18 10:03:38;;;;;;;2.53;1.17;;;13.10;99.90;;;;;;5090530;28;20504;-75
2023/05/18 10:06:08;;;;;;;1.98;0.88;;;13.10;99.90;;;;;;5084093;28;20393;-76
2023/05/18 10:08:35;;;;;;;5.82;1.20;;;13.10;99.90;;;;;;5081334;28;20131;-75
2023/05/18 10:11:02;;;;;;;4.03;0.80;;;13.20;99.90;;;;;;5082505;28;20044;-76
2023/05/18 10:13:30;;;;;;;3.70;1.00;;;13.20;99.90;;;;;;5084090;28;20044;-75
2023/05/18 10:15:58;;;;;;;4.13;0.88;;;13.20;99.90;;;;;;5081828;28;20127;-75
2023/05/18 10:18:35;;;;;;;5.72;0.98;;;13.10;99.90;;;;;;5082848;28;20032;-77
2023/05/18 10:21:03;;;;;;;3.20;1.00;;;13.10;99.90;;;;;;5083453;28;20054;-76
2023/05/18 10:23:31;;;;;;;4.43;1.02;;;13.20;99.90;;;;;;5083290;28;20098;-76
2023/05/18 10:25:58;;;;;;;1.23;0.90;;;13.30;99.90;;;;;;5084738;28;20141;-76
2023/05/18 10:28:31;;;;;;;5.22;1.48;;;13.40;99.90;;;;;;5080983;28;20197;-76
2023/05/18 10:30:58;;;;;;;3.95;1.10;;;13.50;99.90;;;;;;5080239;28;20062;-74
2023/05/18 10:33:26;;;;;;;2.03;1.00;;;13.60;99.90;;;;;;5082613;28;20040;-78
2023/05/18 10:35:53;;;;;;;3.15;1.13;;;13.60;99.90;;;;;;5081826;28;20043;-78
2023/05/18 10:38:27;;;;;;;2.22;0.90;;;13.20;99.90;;;;;;5081738;28;20036;-78
2023/05/18 10:40:56;;;;;;;3.05;0.90;;;13.70;99.90;;;;;;5066546;28;20097;-79
2023/05/18 10:43:26;;;;;;;3.30;0.90;;;13.80;99.90;;;;;;5081535;28;20044;-78
2023/05/18 10:45:54;;;;;;;3.17;1.10;;;13.90;99.90;;;;;;5081927;28;20154;-78
2023/05/18 10:48:21;;;;;;;2.90;1.00;;;14.00;99.90;;;;;;5081533;28;20036;-78
2023/05/18 10:50:49;;;;;;;2.20;1.20;;;14.00;99.90;;;;;;5083365;28;20527;-77
2023/05/18 10:53:20;;;;;;;4.38;1.00;;;14.20;99.90;;;;;;5080299;28;20159;-78
2023/05/18 10:55:50;;;;;;;3.20;1.00;;;14.10;99.90;;;;;;5066435;28;20048;-77
2023/05/18 10:58:22;;;;;;;3.33;0.90;;;14.10;99.90;;;;;;5080971;28;20040;-78
2023/05/18 11:00:52;;;;;;;2.40;1.00;;;14.10;99.90;;;;;;5063791;28;20568;-78
2023/05/18 11:03:19;;;;;;;4.20;1.13;;;14.10;99.80;;;;;;5080440;28;20052;-78
2023/05/18 11:05:51;;;;;;;3.50;0.95;;;14.00;99.70;;;;;;5082014;28;20162;-78
2023/05/18 11:08:26;;;;;;;2.60;1.00;;;13.90;99.90;;;;;;5082054;28;20119;-78
2023/05/18 11:10:59;;;;;;;6.07;1.30;;;13.90;99.60;;;;;;5082222;28;20044;-77
2023/05/18 11:13:29;;;;;;;3.60;1.38;;;13.90;99.80;;;;;;5081889;28;20044;-77
2023/05/18 11:15:55;;;;;;;2.40;0.90;;;13.90;99.90;;;;;;5063561;28;20045;-79
2023/05/18 11:18:39;;;;;;;4.38;0.95;;;14.00;99.90;;;;;;5080601;28;20047;-79
2023/05/18 11:21:30;;;;;;;3.42;0.90;;;14.10;99.70;;;;;;5081675;28;20501;-75
2023/05/18 11:24:22;;;;;;;4.40;1.10;;;14.10;99.90;;;;;;5067370;28;20530;-79
2023/05/18 11:26:59;;;;;;;7.03;1.10;;;14.10;99.90;;;;;;5063909;28;20058;-78
2023/05/18 11:29:38;;;;;;;3.50;1.10;;;14.10;99.90;;;;;;5081939;28;20535;-78
2023/05/18 11:32:21;;;;;;;3.65;1.17;;;14.10;99.90;;;;;;5081871;28;20557;-79
2023/05/18 11:34:51;;;;;;;3.25;1.20;;;14.10;99.90;;;;;;5081347;28;20487;-78
2023/05/18 11:37:36;;;;;;;4.47;1.13;;;14.00;99.90;;;;;;5065103;28;20040;-79
2023/05/18 11:40:04;;;;;;;3.13;1.05;;;14.00;99.90;;;;;;5080935;28;20458;-79
2023/05/18 11:42:34;;;;;;;3.47;1.30;;;13.90;99.90;;;;;;5080822;28;20044;-78
2023/05/18 11:45:10;;;;;;;6.15;2.05;;;14.00;99.90;;;;;;5065132;28;20132;-78
2023/05/18 11:47:39;;;;;;;3.47;1.30;;;13.90;99.90;;;;;;5082609;28;20044;-78
2023/05/18 11:50:11;;;;;;;3.03;1.13;;;14.00;99.90;;;;;;5090620;28;20131;-79
2023/05/18 11:52:48;;;;;;;2.90;0.80;;;14.00;99.90;;;;;;5074113;28;20135;-82
2023/05/18 11:55:15;;;;;;;4.95;1.20;;;14.10;99.90;;;;;;5073088;28;20120;-79
2023/05/18 11:57:51;;;;;;;2.70;1.15;;;14.00;99.90;;;;;;5092372;28;20043;-78
2023/05/18 12:00:18;;;;;;;5.38;1.27;;;14.10;99.90;;;;;;5091928;28;20047;-81
2023/05/18 12:02:45;;;;;;;2.88;1.27;;;14.20;99.90;;;;;;5074260;28;20379;-75
2023/05/18 12:05:11;;;;;;;3.03;1.20;;;14.30;99.90;;;;;;5092127;28;20429;-79
2023/05/18 12:07:39;;;;;;;6.72;1.27;;;14.30;99.90;;;;;;5074693;28;20044;-77
2023/05/18 12:10:13;;;;;;;7.22;1.60;;;14.20;99.90;;;;;;5091088;28;20497;-77
2023/05/18 12:12:40;;;;;;;4.10;1.20;;;14.20;99.90;;;;;;5091180;28;20044;-77
2023/05/18 12:15:10;;;;;;;2.40;1.38;;;14.20;99.90;;;;;;5092697;28;20126;-80
2023/05/18 12:17:40;;;;;;;5.68;1.20;;;14.20;99.90;;;;;;5092118;28;20130;-78
2023/05/18 12:20:11;;;;;;;3.72;0.98;;;14.20;99.90;;;;;;5091675;28;20051;-78
2023/05/18 12:24:01;;;;;;;5.32;1.10;;;14.20;99.90;;;;;;5026897;28;20180;-76
2023/05/18 12:26:27;;;;;;;4.95;1.25;;;14.20;99.90;;;;;;5026421;28;20140;-78
2023/05/18 12:28:54;;;;;;;5.97;1.20;;;14.30;99.90;;;;;;5027429;28;20053;-75
2023/05/18 12:31:21;;;;;;;3.63;1.25;;;14.30;99.90;;;;;;5026382;28;20056;-79
2023/05/18 12:33:46;;;;;;;3.20;1.20;;;14.30;99.90;;;;;;5026322;28;20050;-75
2023/05/18 12:36:13;;;;;;;2.80;1.08;;;14.30;99.90;;;;;;5026668;28;20057;-75
2023/05/18 12:38:39;;;;;;;2.58;1.10;;;14.30;99.90;;;;;;5027470;28;20041;-75
2023/05/18 12:41:05;;;;;;;4.68;1.15;;;14.40;99.90;;;;;;5026312;28;20052;-75
2023/05/18 12:43:35;;;;;;;4.85;1.30;;;14.40;99.90;;;;;;5026332;28;20081;-76
2023/05/18 12:46:04;;;;;;;4.05;1.42;;;14.50;99.90;;;;;;5044714;28;20047;-76
2023/05/18 12:48:43;;;;;;;5.13;1.20;;;14.50;99.90;;;;;;5065873;28;20077;-75
2023/05/18 12:51:20;;;;;;;4.28;1.20;;;14.50;99.90;;;;;;5131117;28;20040;-76
2023/05/18 12:53:48;;;;;;;3.40;1.00;;;14.60;99.90;;;;;;5101737;28;20053;-77
2023/05/18 12:56:13;;;;;;;3.53;1.10;;;14.60;99.90;;;;;;5046232;28;20045;-75
2023/05/18 12:58:39;;;;;;;2.33;1.13;;;14.70;99.90;;;;;;5029128;28;20042;-76
2023/05/18 13:01:11;;;;;;;4.30;1.10;;;14.70;99.90;;;;;;5045835;28;20045;-74
2023/05/18 13:03:40;;;;;;;2.78;1.10;;;14.60;99.90;;;;;;5046882;28;20091;-76
2023/05/18 13:06:08;;;;;;;5.63;1.02;;;14.50;99.90;;;;;;5045068;28;20049;-74
2023/05/18 13:08:35;;;;;;;7.38;1.30;;;14.50;99.90;;;;;;5046892;28;20117;-75
2023/05/18 13:11:05;;;;;;;2.85;1.30;;;14.50;99.90;;;;;;5046308;28;20060;-75
2023/05/18 13:13:32;;;;;;;3.58;1.20;;;14.60;99.90;;;;;;5046868;28;20041;-75
2023/05/18 13:16:00;;;;;;;3.95;1.42;;;14.60;99.90;;;;;;5045007;28;20191;-74
2023/05/18 13:18:27;;;;;;;2.58;1.33;;;14.70;99.90;;;;;;5045501;28;20590;-74
2023/05/18 13:20:55;;;;;;;4.72;1.17;;;14.70;99.90;;;;;;5045302;28;20049;-75
2023/05/18 13:23:24;;;;;;;2.35;1.10;;;14.70;99.90;;;;;;5028145;28;20061;-75
2023/05/18 13:25:50;;;;;;;4.28;1.08;;;14.70;99.90;;;;;;5045958;28;20052;-75
2023/05/18 13:28:18;;;;;;;8.00;1.20;;;14.70;99.90;;;;;;5046743;28;20041;-75
2023/05/18 13:30:46;;;;;;;4.47;1.00;;;14.70;99.90;;;;;;5046346;28;20105;-75
2023/05/18 13:33:11;;;;;;;4.90;1.17;;;14.80;99.90;;;;;;5045132;28;20041;-75
2023/05/18 13:35:41;;;;;;;4.50;0.90;;;14.80;99.90;;;;;;5014580;28;20506;-75
2023/05/18 13:38:12;;;;;;;3.38;1.25;;;14.80;99.90;;;;;;5031353;28;20045;-75
2023/05/18 13:40:38;;;;;;;3.13;1.00;;;14.90;99.90;;;;;;4998908;28;20089;-80
2023/05/18 13:43:05;;;;;;;4.63;1.10;;;14.90;99.90;;;;;;5028827;28;20390;-80
2023/05/18 13:45:31;;;;;;;3.17;1.30;;;14.90;99.90;;;;;;5011283;28;20532;-77
2023/05/18 13:47:57;;;;;;;4.75;1.05;;;15.00;99.90;;;;;;4995501;28;20145;-76
2023/05/18 13:50:24;;;;;;;3.67;1.05;;;15.00;99.90;;;;;;5100175;28;20079;-75
2023/05/18 13:52:51;;;;;;;4.57;1.10;;;15.10;99.90;;;;;;5115642;28;20047;-76
2023/05/18 13:55:17;;;;;;;3.38;1.15;;;15.10;99.90;;;;;;5048493;28;20045;-76
2023/05/18 13:57:44;;;;;;;6.78;1.10;;;15.10;99.90;;;;;;5031314;28;20050;-75
2023/05/18 14:00:12;;;;;;;3.20;1.17;;;15.10;99.90;;;;;;5031285;28;20052;-76
2023/05/18 14:02:42;;;;;;;4.15;1.10;;;15.10;99.90;;;;;;5031031;28;20129;-73
2023/05/18 14:05:09;;;;;;;4.13;1.13;;;15.10;99.90;;;;;;5032672;28;20050;-76
2023/05/18 14:07:36;;;;;;;5.95;1.10;;;15.10;99.90;;;;;;5032646;28;20528;-74
2023/05/18 14:10:02;;;;;;;4.88;1.20;;;15.20;99.90;;;;;;5031135;28;20049;-77
2023/05/18 14:12:28;;;;;;;3.72;1.00;;;15.20;99.90;;;;;;5031530;28;20048;-77
2023/05/18 14:14:53;;;;;;;4.53;1.38;;;15.10;99.90;;;;;;5080113;28;20411;-75
2023/05/18 14:17:19;;;;;;;4.88;1.15;;;15.10;99.90;;;;;;5114887;28;20048;-75
2023/05/18 14:19:45;;;;;;;4.65;1.10;;;15.10;99.90;;;;;;5055401;28;20049;-76
2023/05/18 14:22:11;;;;;;;4.65;1.23;;;15.00;99.90;;;;;;5031216;28;20068;-74
2023/05/18 14:24:36;;;;;;;4.07;1.02;;;15.00;99.90;;;;;;5032463;28;20124;-75
2023/05/18 14:27:02;;;;;;;2.85;0.85;;;15.00;99.90;;;;;;5031948;28;20198;-78
2023/05/18 14:29:28;;;;;;;5.57;0.95;;;15.00;99.90;;;;;;5023676;28;20525;-77
2023/05/18 14:31:54;;;;;;;5.25;1.50;;;15.00;99.90;;;;;;4992726;28;20054;-76
2023/05/18 14:34:19;;;;;;;3.53;1.13;;;15.10;99.90;;;;;;5027187;28;20060;-76
2023/05/18 14:36:45;;;;;;;5.65;1.08;;;15.00;99.90;;;;;;5115848;28;20066;-74
2023/05/18 14:39:11;;;;;;;7.60;1.40;;;15.00;99.90;;;;;;5115640;28;20043;-76
2023/05/18 14:41:36;;;;;;;4.35;1.20;;;15.00;99.90;;;;;;5115683;28;20043;-76
2023/05/18 14:44:02;;;;;;;4.95;1.13;;;15.00;99.90;;;;;;5114737;28;20045;-76
2023/05/18 14:46:29;;;;;;;5.47;1.00;;;15.00;99.90;;;;;;5114561;28;20450;-79
2023/05/18 14:48:55;;;;;;;4.43;0.98;;;15.10;99.90;;;;;;5112916;28;20509;-77
2023/05/18 14:51:23;;;;;;;4.93;1.00;;;15.20;99.90;;;;;;5114621;28;20048;-77
2023/05/18 14:53:49;;;;;;;2.10;0.90;;;15.20;99.90;;;;;;5040795;28;20052;-76
2023/05/18 14:56:15;;;;;;;7.88;1.17;;;15.20;99.90;;;;;;5031445;28;20049;-76
2023/05/18 14:58:41;;;;;;;4.28;0.90;;;15.20;99.90;;;;;;5014659;28;20128;-77
2023/05/18 15:01:06;;;;;;;3.45;1.00;;;15.30;99.90;;;;;;5015535;28;20044;-77
2023/05/18 15:03:32;;;;;;;2.45;0.90;;;15.30;99.90;;;;;;4994465;28;20179;-76
2023/05/18 15:05:58;;;;;;;5.57;0.85;;;15.30;99.90;;;;;;5010722;28;20046;-76
2023/05/18 15:08:24;;;;;;;2.42;1.05;;;15.30;99.90;;;;;;5011150;28;20057;-76
2023/05/18 15:10:50;;;;;;;1.85;0.80;;;15.30;99.90;;;;;;5012084;28;20527;-73
2023/05/18 15:13:16;;;;;;;3.05;0.90;;;15.30;99.90;;;;;;5009807;28;20120;-76
2023/05/18 15:15:42;;;;;;;3.42;1.00;;;15.30;99.90;;;;;;5008467;28;20098;-73
2023/05/18 15:18:08;;;;;;;3.40;0.93;;;15.30;99.90;;;;;;4990999;28;20089;-74
2023/05/18 15:20:34;;;;;;;6.45;1.10;;;15.30;99.90;;;;;;4991002;28;20049;-74
2023/05/18 15:23:00;;;;;;;4.13;0.95;;;15.20;99.90;;;;;;5007744;28;20083;-75
2023/05/18 15:25:27;;;;;;;3.17;0.70;;;15.10;99.90;;;;;;5006902;28;20046;-76
2023/05/18 15:27:53;;;;;;;2.63;0.80;;;15.10;99.90;;;;;;5007535;28;20060;-75
2023/05/18 15:30:19;;;;;;;2.33;0.80;;;15.00;99.90;;;;;;5026779;28;20045;-76
2023/05/18 15:32:44;;;;;;;2.28;1.00;;;15.00;99.90;;;;;;5026828;28;20545;-76
2023/05/18 15:35:10;;;;;;;2.30;0.90;;;15.00;99.90;;;;;;5027553;28;20049;-75
2023/05/18 15:37:36;;;;;;;4.72;1.00;;;15.00;99.90;;;;;;5027960;28;20053;-76
2023/05/18 15:40:02;;;;;;;2.78;0.80;;;15.00;99.90;;;;;;5027303;28;20074;-77
2023/05/18 15:42:28;;;;;;;3.28;0.70;;;15.10;99.90;;;;;;5027629;28;20455;-76
2023/05/18 15:44:54;;;;;;;1.98;0.85;;;15.20;99.90;;;;;;5026472;28;20048;-78
2023/05/18 15:47:20;;;;;;;4.10;0.77;;;15.30;99.90;;;;;;5027302;28;20045;-75
2023/05/18 15:49:45;;;;;;;1.35;0.80;;;15.30;99.90;;;;;;5009831;28;20041;-77
2023/05/18 15:52:11;;;;;;;1.88;0.70;;;15.30;99.90;;;;;;5026730;28;20187;-78
2023/05/18 15:54:37;;;;;;;1.83;0.80;;;15.30;99.90;;;;;;5026621;28;20550;-79
2023/05/18 15:57:03;;;;;;;1.50;0.70;;;15.30;99.90;;;;;;5025865;28;20095;-79
2023/05/18 15:59:28;;;;;;;3.40;0.80;;;15.40;99.90;;;;;;5027318;28;20081;-78
2023/05/18 16:01:54;;;;;;;3.67;0.70;;;15.40;99.90;;;;;;5025967;28;20053;-79
2023/05/18 16:04:20;;;;;;;2.90;0.90;;;15.30;99.80;;;;;;5027152;28;20049;-78
2023/05/18 16:06:46;;;;;;;3.08;0.90;;;15.20;99.90;;;;;;5025632;28;20045;-78
2023/05/18 16:09:11;;;;;;;2.95;0.77;;;15.20;99.90;;;;;;5026231;28;20498;-76
2023/05/18 16:11:37;;;;;;;4.28;0.90;;;15.20;99.90;;;;;;5027157;28;20050;-79
2023/05/18 16:14:03;;;;;;;3.85;0.82;;;15.20;99.60;;;;;;5027270;28;20189;-78
2023/05/18 16:16:29;;;;;;;1.85;0.75;;;15.10;99.90;;;;;;5027398;28;20097;-74
2023/05/18 16:18:55;;;;;;;3.90;1.00;;;15.00;99.90;;;;;;5026628;28;20571;-74
2023/05/18 16:21:21;;;;;;;2.45;1.00;;;14.90;99.90;;;;;;5026518;28;20094;-73
2023/05/18 16:23:47;;;;;;;3.58;0.90;;;14.90;99.90;;;;;;5025385;28;20078;-73
2023/05/18 16:26:13;;;;;;;3.15;0.90;;;14.80;99.90;;;;;;5027157;28;20084;-72
2023/05/18 16:28:39;;;;;;;4.35;0.93;;;14.80;99.90;;;;;;5026202;28;20045;-74
2023/05/18 16:31:10;;;;;;;2.67;0.90;;;14.70;99.90;;;;;;5026964;28;20053;-73
2023/05/18 16:33:37;;;;;;;4.30;1.10;;;14.60;99.90;;;;;;5027666;28;20050;-74
2023/05/18 16:36:04;;;;;;;2.30;0.90;;;14.70;99.90;;;;;;5026180;28;20439;-74
2023/05/18 16:38:34;;;;;;;2.95;1.00;;;14.60;99.90;;;;;;5027473;28;20049;-74
2023/05/18 16:41:03;;;;;;;2.47;0.90;;;14.70;99.90;;;;;;5027294;28;20053;-76
2023/05/18 16:43:29;;;;;;;3.95;0.90;;;14.60;99.90;;;;;;5027282;28;20133;-71
2023/05/18 16:45:55;;;;;;;5.35;1.10;;;14.70;99.90;;;;;;5028501;28;20053;-72
2023/05/18 16:48:21;;;;;;;4.43;1.23;;;14.60;99.90;;;;;;5027577;28;20053;-72
2023/05/18 16:50:46;;;;;;;3.90;0.93;;;14.70;99.90;;;;;;5030510;28;20099;-71
2023/05/18 16:53:12;;;;;;;3.15;0.90;;;14.70;99.90;;;;;;5027920;28;20140;-72
2023/05/18 16:55:38;;;;;;;4.05;1.08;;;14.70;99.90;;;;;;5031411;28;20077;-71
2023/05/18 16:58:04;;;;;;;3.10;0.80;;;14.70;99.90;;;;;;5030337;28;20069;-72
2023/05/18 17:00:30;;;;;;;3.55;0.80;;;14.60;99.90;;;;;;5034248;28;20045;-72
2023/05/18 17:02:57;;;;;;;5.60;1.10;;;14.60;99.90;;;;;;5030130;28;20045;-73
2023/05/18 17:05:22;;;;;;;5.03;1.10;;;14.50;99.90;;;;;;5031271;28;20821;-68
2023/05/18 17:07:49;;;;;;;2.65;1.30;;;14.50;99.90;;;;;;5028212;28;20132;-72
2023/05/18 17:10:15;;;;;;;3.80;1.13;;;14.50;99.90;;;;;;5033058;28;20087;-72
2023/05/18 17:12:41;;;;;;;1.55;0.90;;;14.40;99.90;;;;;;5031303;28;20045;-72
2023/05/18 17:15:11;;;;;;;3.60;1.17;;;14.40;99.90;;;;;;5030225;28;20203;-71
2023/05/18 17:17:41;;;;;;;3.30;1.02;;;14.30;99.90;;;;;;5031092;28;20057;-71
2023/05/18 17:20:08;;;;;;;4.97;1.00;;;14.20;99.90;;;;;;5030258;28;20057;-71
2023/05/18 17:22:34;;;;;;;2.83;1.00;;;14.20;99.90;;;;;;5029241;28;20096;-69
2023/05/18 17:25:00;;;;;;;4.05;1.10;;;14.10;99.90;;;;;;5029507;28;20053;-70
2023/05/18 17:27:26;;;;;;;3.97;1.05;;;14.10;99.90;;;;;;5028952;28;20061;-72
2023/05/18 17:29:51;;;;;;;5.93;1.33;;;14.10;99.90;;;;;;5012605;28;20136;-71
2023/05/18 17:32:17;;;;;;;3.30;1.10;;;14.00;99.90;;;;;;5029084;28;20056;-71
2023/05/18 17:34:43;;;;;;;3.05;1.00;;;14.00;99.90;;;;;;5029858;28;20056;-70
2023/05/18 17:37:09;;;;;;;3.15;1.00;;;14.00;99.90;;;;;;5028010;28;20045;-72
2023/05/18 17:39:34;;;;;;;5.45;1.20;;;13.40;99.90;;;;;;5030008;28;20049;-71
2023/05/18 17:42:00;;;;;;;4.32;1.20;;;13.90;99.90;;;;;;5012111;28;20508;-71
2023/05/18 17:44:26;;;;;;;2.85;0.90;;;13.90;99.90;;;;;;5030824;28;20079;-72
2023/05/18 17:46:52;;;;;;;3.55;1.00;;;13.90;99.90;;;;;;5030293;28;20166;-81
2023/05/18 17:49:18;;;;;;;4.63;1.33;;;13.80;99.90;;;;;;5031888;28;20493;-72
2023/05/18 17:51:44;;;;;;;3.20;1.00;;;13.80;99.90;;;;;;5031259;28;20049;-72
2023/05/18 17:54:10;;;;;;;3.33;0.90;;;13.80;99.90;;;;;;5016059;28;20517;-73
2023/05/18 17:56:37;;;;;;;3.78;0.98;;;13.80;99.90;;;;;;5091049;28;20082;-74
2023/05/18 17:59:04;;;;;;;2.67;1.00;;;13.80;99.90;;;;;;5120048;27;20055;-72
2023/05/18 18:01:30;;;;;;;4.45;1.20;;;13.80;99.90;;;;;;5119135;28;20055;-71
2023/05/18 18:03:56;;;;;;;2.33;1.00;;;13.70;99.90;;;;;;5118262;28;20047;-72
2023/05/18 18:06:22;;;;;;;3.13;1.08;;;13.70;99.90;;;;;;5115754;28;20051;-72
2023/05/18 18:08:52;;;;;;;6.05;1.02;;;13.70;99.90;;;;;;5116983;28;20047;-73
2023/05/18 18:11:20;;;;;;;4.63;1.20;;;13.60;99.90;;;;;;5097503;28;20051;-71
2023/05/18 18:13:47;;;;;;;4.03;1.10;;;13.60;99.90;;;;;;5070927;28;20152;-71
2023/05/18 18:16:13;;;;;;;4.88;1.80;;;13.50;99.90;;;;;;5031553;28;20254;-71
2023/05/18 18:18:39;;;;;;;3.85;1.40;;;13.50;99.90;;;;;;5029993;28;20481;-72
2023/05/18 18:21:05;;;;;;;2.88;1.13;;;13.40;99.90;;;;;;5029245;28;20056;-72
2023/05/18 18:23:32;;;;;;;4.45;1.20;;;13.40;99.90;;;;;;5029097;28;20125;-71
2023/05/18 18:25:58;;;;;;;3.25;0.93;;;13.30;99.90;;;;;;5028399;28;20565;-71
2023/05/18 18:28:24;;;;;;;4.72;1.25;;;13.20;99.90;;;;;;5027864;28;20077;-73
2023/05/18 18:30:50;;;;;;;5.03;1.67;;;13.20;99.90;;;;;;5029130;28;20505;-71
2023/05/18 18:33:16;;;;;;;5.20;1.52;;;13.10;99.90;;;;;;5027739;28;20051;-70
2023/05/18 18:35:42;;;;;;;5.72;1.15;;;13.00;99.90;;;;;;5028836;28;20049;-70
2023/05/18 18:38:08;;;;;;;3.80;1.40;;;13.00;99.90;;;;;;5030160;28;20424;-72
2023/05/18 18:40:34;;;;;;;3.55;1.50;;;12.90;99.90;;;;;;5027512;28;20174;-70
2023/05/18 18:43:00;;;;;;;2.53;1.20;;;12.80;99.90;;;;;;5010847;28;20478;-71
2023/05/18 18:45:27;;;;;;;3.70;1.30;;;12.80;99.90;;;;;;5028714;28;20056;-70
2023/05/18 18:47:54;;;;;;;3.88;1.15;;;12.80;99.90;;;;;;5028546;28;20530;-70
2023/05/18 18:50:20;;;;;;;5.28;1.15;;;12.70;99.90;;;;;;5027304;28;20551;-72
2023/05/18 18:52:46;;;;;;;3.58;1.42;;;12.60;99.90;;;;;;5028168;28;20357;-70
2023/05/18 18:55:12;;;;;;;7.10;1.85;;;12.60;99.90;;;;;;5026434;28;20090;-72
2023/05/18 18:57:37;;;;;;;5.63;1.55;;;12.50;99.90;;;;;;5027634;28;20052;-70
2023/05/18 19:00:07;;;;;;;4.18;1.70;;;12.40;99.90;;;;;;5006843;28;20069;-71
2023/05/18 19:02:35;;;;;;;5.43;2.47;;;12.40;99.90;;;;;;5008039;28;20034;-69
2023/05/18 19:05:01;;;;;;;5.78;1.77;;;12.30;99.90;;;;;;5007975;28;20082;-70
2023/05/18 19:07:27;;;;;;;6.50;1.45;;;12.30;99.90;;;;;;5007328;28;20081;-71
2023/05/18 19:09:53;;;;;;;4.28;1.23;;;12.20;99.90;;;;;;5005966;28;20058;-70
2023/05/18 19:12:18;;;;;;;4.00;0.98;;;12.10;99.90;;;;;;5007308;28;20050;-70
2023/05/18 19:14:44;;;;;;;4.80;1.20;;;12.10;99.90;;;;;;5007177;28;20106;-70
2023/05/18 19:17:10;;;;;;;3.63;1.35;;;12.00;99.90;;;;;;5008437;28;20052;-71
2023/05/18 19:19:36;;;;;;;4.50;1.33;;;12.00;99.90;;;;;;5008127;28;20136;-70
2023/05/18 19:22:03;;;;;;;3.92;1.25;;;11.90;99.90;;;;;;5007491;28;20524;-70
2023/05/18 19:24:29;;;;;;;5.25;1.45;;;11.90;99.90;;;;;;5006453;28;20054;-69
2023/05/18 19:26:55;;;;;;;3.38;1.30;;;11.80;99.90;;;;;;5008444;28;20054;-71
2023/05/18 19:29:23;;;;;;;3.85;1.48;;;11.70;99.90;;;;;;5007633;28;20050;-71
2023/05/18 19:31:50;;;;;;;6.28;1.30;;;11.70;99.90;;;;;;5006223;28;20060;-73
2023/05/18 19:34:16;;;;;;;5.32;1.58;;;11.60;99.90;;;;;;5005376;28;20045;-72
2023/05/18 19:36:42;;;;;;;5.72;1.67;;;11.60;99.90;;;;;;5007430;28;20056;-72
2023/05/18 19:39:08;;;;;;;4.85;1.40;;;11.50;99.90;;;;;;5007688;28;20053;-71
2023/05/18 19:41:35;;;;;;;4.68;1.35;;;11.50;99.90;;;;;;5007001;28;20073;-72
2023/05/18 19:44:01;;;;;;;5.63;1.30;;;11.50;99.90;;;;;;5006780;28;20413;-72
2023/05/18 19:46:27;;;;;;;3.33;1.17;;;11.40;99.90;;;;;;5006614;28;20130;-73
2023/05/18 19:48:52;;;;;;;3.70;1.40;;;11.30;99.90;;;;;;5006417;28;20544;-72
2023/05/18 19:51:18;;;;;;;4.78;1.55;;;11.30;99.90;;;;;;5006397;28;20095;-73
2023/05/18 19:53:44;;;;;;;5.15;2.00;;;11.20;99.90;;;;;;5039351;28;20088;-72
2023/05/18 19:56:12;;;;;;;5.70;1.58;;;11.20;99.90;;;;;;5109502;28;20048;-72
2023/05/18 19:58:38;;;;;;;6.00;1.63;;;11.20;99.90;;;;;;5069990;28;20076;-74
2023/05/18 20:01:04;;;;;;;4.50;1.20;;;11.10;99.90;;;;;;5009478;28;20099;-72
2023/05/18 20:03:31;;;;;;;6.30;1.65;;;11.00;99.90;;;;;;4993089;28;20045;-73
2023/05/18 20:05:57;;;;;;;3.03;1.20;;;11.10;99.90;;;;;;5027311;28;20064;-73
2023/05/18 20:08:22;;;;;;;5.15;1.42;;;11.00;99.90;;;;;;5027659;28;20453;-71
2023/05/18 20:10:48;;;;;;;5.57;1.98;;;11.00;99.90;;;;;;5027194;28;20056;-71
2023/05/18 20:13:14;;;;;;;3.60;1.20;;;10.90;99.90;;;;;;5026877;28;20049;-71
2023/05/18 20:15:40;;;;;;;3.92;1.50;;;10.90;99.90;;;;;;5025867;28;20098;-73
2023/05/18 20:18:05;;;;;;;6.57;1.73;;;10.90;99.90;;;;;;5027204;28;20049;-72
2023/05/18 20:20:32;;;;;;;5.40;1.42;;;10.80;99.90;;;;;;5027578;28;20057;-71
2023/05/18 20:23:02;;;;;;;5.13;1.40;;;10.80;99.90;;;;;;5025022;28;20065;-73
2023/05/18 20:25:33;;;;;;;3.67;1.33;;;10.80;99.90;;;;;;5025452;28;20054;-72
2023/05/18 20:28:01;;;;;;;4.60;1.38;;;10.80;99.90;;;;;;5025446;28;20485;-73
2023/05/18 20:30:28;;;;;;;4.10;1.70;;;10.70;99.90;;;;;;5025378;28;20051;-71
2023/05/18 20:32:57;;;;;;;3.75;1.70;;;10.70;99.90;;;;;;5027039;28;20363;-72
2023/05/18 20:35:24;;;;;;;5.00;1.92;;;10.70;99.90;;;;;;5027302;28;20068;-72
2023/05/18 20:37:58;;;;;;;5.07;1.90;;;10.60;99.90;;;;;;5026797;28;20053;-71
2023/05/18 20:40:25;;;;;;;3.17;1.52;;;10.60;99.90;;;;;;5009951;28;20061;-71
2023/05/18 20:42:54;;;;;;;4.68;1.35;;;10.60;99.90;;;;;;5026619;28;20046;-71
2023/05/18 20:45:24;;;;;;;4.90;1.60;;;10.50;99.90;;;;;;4995692;28;20117;-71
2023/05/18 20:47:50;;;;;;;3.13;1.58;;;10.50;99.90;;;;;;5010223;28;20060;-71
2023/05/18 20:50:17;;;;;;;6.30;1.40;;;10.40;99.90;;;;;;5093292;28;20420;-71
2023/05/18 20:52:44;;;;;;;5.82;2.00;;;10.40;99.90;;;;;;5113407;28;20055;-73
2023/05/18 20:55:10;;;;;;;4.95;1.65;;;10.40;99.90;;;;;;5113587;28;20142;-71